createdAt,value
2022-10-11T00:02:29.156Z,71.24
2022-10-11T00:04:59.074Z,71.17
2022-10-11T00:07:30.066Z,71.29
2022-10-11T00:09:59.589Z,71.13
2022-10-11T00:12:29.071Z,71.67
2022-10-11T00:14:59.428Z,71.58
2022-10-11T00:17:29.563Z,71.82
2022-10-11T00:19:59.433Z,72.38
2022-10-11T00:22:30.356Z,72.47
2022-10-11T00:25:00.097Z,72.76
2022-10-11T00:27:29.666Z,72.90
2022-10-11T00:29:59.159Z,73.82
2022-10-11T00:32:28.657Z,73.96
2022-10-11T00:34:59.790Z,73.08
2022-10-11T00:37:30.674Z,73.43
2022-10-11T00:40:00.272Z,73.12
2022-10-11T00:42:29.811Z,73.64
2022-10-11T00:45:14.095Z,73.52
2022-10-11T00:47:43.583Z,73.54
2022-10-11T00:50:13.233Z,74.19
2022-10-11T00:52:47.028Z,74.26
2022-10-11T00:55:19.759Z,74.52
2022-10-11T00:57:50.657Z,74.61
2022-10-11T01:00:20.943Z,74.09
2022-10-11T01:02:50.509Z,74.75
2022-10-11T01:05:35.273Z,75.86
2022-10-11T01:08:07.519Z,75.39
2022-10-11T01:10:36.998Z,75.79
2022-10-11T01:13:13.454Z,76.15
2022-10-11T01:15:46.771Z,76.61
2022-10-11T01:18:21.609Z,76.42
2022-10-11T01:21:00.577Z,76.60
2022-10-11T01:23:45.172Z,76.63
2022-10-11T01:26:27.775Z,77.28
2022-10-11T01:29:06.221Z,77.16
2022-10-11T01:31:40.302Z,77.54
2022-10-11T01:34:12.897Z,77.51
2022-10-11T01:36:48.212Z,77.81
2022-10-11T01:39:21.137Z,77.40
2022-10-11T01:41:52.620Z,78.21
2022-10-11T01:44:24.638Z,78.24
2022-10-11T01:46:55.874Z,78.02
2022-10-11T01:49:25.370Z,77.79
2022-10-11T01:51:56.359Z,77.97
2022-10-11T01:54:56.534Z,79.19
2022-10-11T01:57:49.760Z,78.63
2022-10-11T02:00:20.469Z,79.00
2022-10-11T02:03:02.480Z,79.45
2022-10-11T02:05:36.637Z,80.05
2022-10-11T02:08:09.297Z,80.12
2022-10-11T02:10:41.228Z,78.55
2022-10-11T02:13:14.584Z,76.02
2022-10-11T02:15:46.388Z,75.13
2022-10-11T02:18:21.439Z,74.41
2022-10-11T02:20:51.596Z,74.17
2022-10-11T02:23:24.298Z,74.44
2022-10-11T02:25:54.975Z,73.85
2022-10-11T02:28:26.958Z,73.69
2022-10-11T02:30:58.859Z,73.60
2022-10-11T02:33:32.871Z,73.18
2022-10-11T02:36:04.160Z,73.63
2022-10-11T02:38:36.628Z,73.50
2022-10-11T02:41:11.456Z,73.53
2022-10-11T02:43:44.286Z,73.58
2022-10-11T02:46:16.662Z,73.29
2022-10-11T02:48:49.352Z,72.90
2022-10-11T02:51:19.097Z,73.25
2022-10-11T02:53:48.649Z,73.30
2022-10-11T02:56:18.246Z,73.78
2022-10-11T02:58:47.798Z,73.99
2022-10-11T03:01:17.366Z,73.34
2022-10-11T03:03:47.409Z,73.56
2022-10-11T03:06:18.331Z,73.84
2022-10-11T03:08:48.149Z,73.08
2022-10-11T03:11:17.693Z,73.22
2022-10-11T03:13:47.661Z,73.92
2022-10-11T03:16:17.837Z,74.11
2022-10-11T03:18:47.397Z,74.75
2022-10-11T03:21:18.631Z,73.82
2022-10-11T03:23:48.386Z,74.16
2022-10-11T03:26:17.889Z,74.31
2022-10-11T03:28:47.725Z,74.06
2022-10-11T03:31:18.621Z,73.88
2022-10-11T03:33:48.382Z,74.19
2022-10-11T03:36:19.471Z,74.51
2022-10-11T03:38:49.599Z,73.90
2022-10-11T03:41:19.098Z,74.01
2022-10-11T03:43:48.668Z,74.14
2022-10-11T03:46:18.107Z,73.50
2022-10-11T03:48:47.655Z,73.71
2022-10-11T03:51:17.639Z,73.79
2022-10-11T03:53:48.633Z,74.04
2022-10-11T03:56:18.148Z,73.84
2022-10-11T03:58:47.886Z,73.73
2022-10-11T04:01:17.424Z,74.30
2022-10-11T04:03:47.219Z,74.66
2022-10-11T04:06:16.745Z,74.81
2022-10-11T04:08:47.979Z,74.83
2022-10-11T04:11:17.734Z,75.60
2022-10-11T04:13:47.600Z,75.40
2022-10-11T04:16:17.735Z,75.87
2022-10-11T04:18:47.571Z,76.13
2022-10-11T04:21:17.076Z,75.80
2022-10-11T04:23:48.281Z,75.42
2022-10-11T04:26:17.932Z,74.86
2022-10-11T04:28:47.533Z,74.70
2022-10-11T04:31:17.087Z,75.51
2022-10-11T04:33:46.556Z,75.15
2022-10-11T04:36:16.348Z,75.50
2022-10-11T04:38:45.886Z,75.17
2022-10-11T04:41:18.199Z,74.82
2022-10-11T04:43:47.842Z,74.58
2022-10-11T04:46:17.684Z,74.57
2022-10-11T04:48:47.281Z,74.77
2022-10-11T04:51:16.818Z,73.84
2022-10-11T04:53:46.362Z,73.69
2022-10-11T04:56:17.811Z,73.95
2022-10-11T04:58:49.528Z,73.68
2022-10-11T05:01:19.265Z,74.07
2022-10-11T05:03:49.143Z,73.80
2022-10-11T05:06:18.863Z,73.67
2022-10-11T05:08:48.417Z,73.73
2022-10-11T05:11:18.073Z,73.28
2022-10-11T05:13:49.536Z,73.42
2022-10-11T05:16:19.404Z,73.32
2022-10-11T05:18:49.108Z,72.93
2022-10-11T05:21:19.506Z,72.80
2022-10-11T05:23:49.909Z,73.04
2022-10-11T05:26:19.603Z,72.85
2022-10-11T05:28:51.049Z,73.02
2022-10-11T05:31:24.328Z,73.35
2022-10-11T05:33:53.868Z,73.38
2022-10-11T05:36:23.538Z,73.11
2022-10-11T05:38:53.117Z,73.10
2022-10-11T05:41:22.679Z,73.18
2022-10-11T05:43:53.533Z,73.05
2022-10-11T05:46:23.131Z,73.11
2022-10-11T05:48:52.870Z,73.48
2022-10-11T05:51:22.836Z,73.55
2022-10-11T05:53:52.721Z,74.02
2022-10-11T05:56:23.276Z,73.98
2022-10-11T05:58:56.561Z,74.55
2022-10-11T06:01:29.776Z,74.61
2022-10-11T06:03:59.369Z,74.18
2022-10-11T06:06:29.243Z,74.16
2022-10-11T06:08:59.710Z,74.26
2022-10-11T06:11:29.229Z,74.07
2022-10-11T06:14:00.239Z,73.99
2022-10-11T06:16:29.795Z,74.64
2022-10-11T06:19:00.464Z,75.17
2022-10-11T06:21:30.002Z,74.72
2022-10-11T06:24:01.856Z,74.97
2022-10-11T06:26:33.725Z,75.84
2022-10-11T06:29:04.835Z,76.39
2022-10-11T06:31:34.312Z,77.22
2022-10-11T06:34:03.998Z,77.26
2022-10-11T06:36:33.641Z,76.74
2022-10-11T06:39:03.207Z,76.68
2022-10-11T06:41:32.798Z,77.30
2022-10-11T06:44:02.259Z,77.29
2022-10-11T06:46:34.403Z,77.36
2022-10-11T06:49:03.974Z,77.47
2022-10-11T06:51:35.414Z,77.60
2022-10-11T06:54:05.353Z,77.29
2022-10-11T06:56:34.836Z,77.61
2022-10-11T06:59:04.539Z,77.57
2022-10-11T07:01:35.367Z,77.69
2022-10-11T07:04:04.987Z,77.54
2022-10-11T07:06:37.890Z,77.05
2022-10-11T07:09:08.282Z,76.26
2022-10-11T07:11:38.472Z,75.41
2022-10-11T07:14:08.649Z,74.55
2022-10-11T07:16:39.955Z,74.25
2022-10-11T07:19:09.596Z,74.00
2022-10-11T07:21:39.115Z,74.13
2022-10-11T07:24:08.970Z,74.85
2022-10-11T07:26:39.320Z,75.53
2022-10-11T07:29:10.186Z,75.64
2022-10-11T07:31:42.970Z,75.77
2022-10-11T07:34:12.476Z,74.97
2022-10-11T07:36:42.095Z,75.41
2022-10-11T07:39:11.909Z,75.08
2022-10-11T07:41:45.654Z,74.97
2022-10-11T07:44:15.724Z,74.90
2022-10-11T07:46:46.979Z,74.67
2022-10-11T07:49:16.490Z,74.46
2022-10-11T07:51:46.022Z,74.17
2022-10-11T07:54:15.615Z,74.20
2022-10-11T07:56:45.070Z,74.14
2022-10-11T07:59:14.751Z,74.26
2022-10-11T08:01:44.297Z,73.85
2022-10-11T08:04:15.476Z,73.86
2022-10-11T08:06:46.277Z,73.55
2022-10-11T08:09:18.280Z,73.31
2022-10-11T08:11:48.457Z,73.69
2022-10-11T08:14:19.088Z,73.35
2022-10-11T08:16:49.151Z,72.73
2022-10-11T08:19:20.149Z,72.54
2022-10-11T08:21:49.861Z,72.46
2022-10-11T08:24:20.952Z,71.79
2022-10-11T08:26:50.400Z,71.22
2022-10-11T08:29:21.163Z,70.26
2022-10-11T08:31:50.798Z,70.63
2022-10-11T08:34:21.929Z,70.55
2022-10-11T08:36:51.462Z,70.49
2022-10-11T08:39:21.207Z,70.36
2022-10-11T08:41:54.415Z,69.78
2022-10-11T08:44:51.905Z,69.88
2022-10-11T08:47:24.615Z,69.81
2022-10-11T08:49:56.144Z,70.30
2022-10-11T08:52:28.500Z,70.31
2022-10-11T08:55:00.404Z,70.46
2022-10-11T08:57:33.039Z,70.47
2022-10-11T09:00:05.612Z,69.99
2022-10-11T09:03:03.376Z,69.73
2022-10-11T09:05:33.563Z,69.25
2022-10-11T09:08:09.506Z,68.86
2022-10-11T09:10:50.383Z,68.69
2022-10-11T09:13:31.528Z,67.69
2022-10-11T09:16:09.484Z,67.69
2022-10-11T09:18:46.511Z,66.43
2022-10-11T09:21:26.223Z,66.51
2022-10-11T09:24:03.906Z,66.81
2022-10-11T09:26:38.408Z,66.25
2022-10-11T09:29:11.730Z,66.43
2022-10-11T09:31:41.847Z,66.02
2022-10-11T09:34:12.516Z,66.08
2022-10-11T09:36:50.547Z,65.59
2022-10-11T09:39:26.600Z,64.86
2022-10-11T09:41:59.395Z,64.07
2022-10-11T09:44:30.690Z,64.36
2022-10-11T09:47:00.335Z,64.21
2022-10-11T09:49:32.442Z,64.25
2022-10-11T09:52:04.217Z,63.93
2022-10-11T09:54:39.272Z,63.65
2022-10-11T09:57:18.622Z,63.39
2022-10-11T09:59:59.286Z,63.38
2022-10-11T10:02:29.672Z,62.94
2022-10-11T10:05:01.548Z,62.48
2022-10-11T10:07:33.511Z,62.64
2022-10-11T10:10:26.208Z,62.10
2022-10-11T10:12:58.940Z,62.47
2022-10-11T10:15:30.983Z,62.23
2022-10-11T10:18:00.715Z,61.31
2022-10-11T10:20:32.670Z,61.44
2022-10-11T10:23:08.417Z,61.59
2022-10-11T10:25:43.521Z,61.37
2022-10-11T10:28:18.815Z,61.36
2022-10-11T10:30:54.296Z,61.01
2022-10-11T10:33:24.603Z,60.62
2022-10-11T10:35:57.668Z,60.45
2022-10-11T10:38:31.457Z,60.29
2022-10-11T10:41:03.257Z,59.94
2022-10-11T10:43:34.566Z,60.40
2022-10-11T10:46:14.881Z,60.30
2022-10-11T10:49:28.297Z,60.22
2022-10-11T10:51:44.238Z,59.71
2022-10-11T10:54:18.753Z,59.88
2022-10-11T10:56:51.754Z,59.80
2022-10-11T10:59:37.004Z,59.97
2022-10-11T11:02:35.447Z,60.13
2022-10-11T11:05:08.828Z,59.92
2022-10-11T11:07:44.868Z,59.08
2022-10-11T11:10:18.396Z,58.96
2022-10-11T11:12:54.295Z,58.80
2022-10-11T11:15:32.493Z,58.53
2022-10-11T11:18:12.444Z,58.55
2022-10-11T11:20:50.696Z,58.85
2022-10-11T11:23:23.483Z,58.72
2022-10-11T11:26:00.201Z,59.04
2022-10-11T11:28:39.301Z,58.98
2022-10-11T11:31:13.629Z,59.08
2022-10-11T11:33:48.768Z,59.01
2022-10-11T11:36:25.419Z,58.98
2022-10-11T11:38:59.355Z,59.04
2022-10-11T11:41:34.627Z,59.12
2022-10-11T11:44:08.094Z,59.03
2022-10-11T11:46:42.255Z,59.25
2022-10-11T11:49:14.501Z,58.63
2022-10-11T11:51:45.468Z,58.42
2022-10-11T11:54:28.346Z,58.20
2022-10-11T11:57:02.865Z,58.15
2022-10-11T11:59:37.115Z,58.03
2022-10-11T12:02:22.169Z,58.13
2022-10-11T12:04:53.011Z,58.08
2022-10-11T12:07:24.607Z,57.45
2022-10-11T12:09:55.307Z,57.25
2022-10-11T12:12:29.682Z,57.83
2022-10-11T12:15:05.032Z,57.53
2022-10-11T12:17:35.700Z,57.01
2022-10-11T12:20:11.718Z,57.37
2022-10-11T12:22:55.170Z,56.61
2022-10-11T12:25:34.083Z,56.53
2022-10-11T12:28:25.003Z,56.71
2022-10-11T12:31:04.569Z,56.47
2022-10-11T12:33:49.647Z,56.81
2022-10-11T12:36:40.093Z,57.09
2022-10-11T12:39:30.727Z,57.01
2022-10-11T12:42:07.499Z,57.17
2022-10-11T12:44:38.728Z,57.11
2022-10-11T12:47:25.968Z,56.95
2022-10-11T12:50:06.084Z,57.07
2022-10-11T12:52:41.468Z,56.55
2022-10-11T12:55:23.543Z,56.13
2022-10-11T12:58:12.248Z,55.90
2022-10-11T13:01:05.984Z,56.21
2022-10-11T13:03:38.005Z,56.18
2022-10-11T13:06:12.253Z,56.31
2022-10-11T13:08:43.419Z,54.99
2022-10-11T13:11:19.973Z,55.29
2022-10-11T13:13:52.129Z,55.78
2022-10-11T13:16:24.959Z,55.62
2022-10-11T13:18:58.858Z,55.81
2022-10-11T13:21:30.730Z,54.90
2022-10-11T13:24:01.347Z,54.77
2022-10-11T13:26:32.088Z,54.38
2022-10-11T13:29:01.978Z,54.47
2022-10-11T13:31:34.031Z,54.54
2022-10-11T13:34:03.675Z,54.38
2022-10-11T13:36:33.540Z,54.10
2022-10-11T13:39:03.564Z,53.92
2022-10-11T13:41:34.952Z,54.31
2022-10-11T13:44:05.259Z,54.54
2022-10-11T13:46:40.314Z,54.76
2022-10-11T13:49:26.632Z,54.14
2022-10-11T13:52:01.069Z,54.42
2022-10-11T13:54:45.718Z,53.93
2022-10-11T13:57:15.987Z,53.82
2022-10-11T13:59:45.800Z,54.03
2022-10-11T14:02:19.404Z,54.40
2022-10-11T14:04:49.931Z,54.55
2022-10-11T14:07:23.500Z,53.93
2022-10-11T14:09:53.396Z,53.72
2022-10-11T14:12:30.741Z,53.89
2022-10-11T14:15:01.435Z,53.58
2022-10-11T14:17:39.128Z,53.59
2022-10-11T14:20:19.103Z,53.87
2022-10-11T14:22:51.273Z,54.91
2022-10-11T14:25:21.157Z,55.03
2022-10-11T14:27:51.092Z,55.30
2022-10-11T14:30:27.337Z,55.53
2022-10-11T14:33:00.593Z,55.65
2022-10-11T14:35:31.781Z,56.04
2022-10-11T14:38:01.531Z,55.95
2022-10-11T14:40:32.141Z,55.87
2022-10-11T14:43:01.743Z,55.90
2022-10-11T14:45:31.383Z,56.24
2022-10-11T14:48:02.529Z,56.26
2022-10-11T14:50:36.508Z,56.36
2022-10-11T14:53:07.530Z,56.39
2022-10-11T14:55:37.822Z,56.14
2022-10-11T14:58:08.681Z,56.86
2022-10-11T15:00:38.626Z,56.71
2022-10-11T15:03:09.600Z,56.56
2022-10-11T15:05:39.327Z,56.34
2022-10-11T15:08:08.911Z,56.68
2022-10-11T15:10:40.100Z,56.93
2022-10-11T15:13:11.243Z,56.66
2022-10-11T15:15:42.156Z,56.80
2022-10-11T15:18:16.680Z,57.25
2022-10-11T15:20:46.892Z,57.31
2022-10-11T15:23:16.856Z,57.47
2022-10-11T15:25:47.307Z,58.03
2022-10-11T15:28:21.808Z,57.95
2022-10-11T15:30:52.694Z,57.53
2022-10-11T15:33:24.316Z,58.16
2022-10-11T15:35:54.106Z,58.46
2022-10-11T15:38:25.014Z,58.33
2022-10-11T15:40:55.174Z,57.92
2022-10-11T15:43:27.475Z,57.95
2022-10-11T15:45:57.919Z,58.42
2022-10-11T15:48:29.108Z,58.22
2022-10-11T15:50:59.185Z,58.41
2022-10-11T15:53:31.120Z,58.22
2022-10-11T15:56:02.476Z,58.34
2022-10-11T15:58:33.022Z,58.30
2022-10-11T16:01:06.197Z,58.06
2022-10-11T16:03:37.398Z,57.92
2022-10-11T16:06:07.838Z,57.79
2022-10-11T16:08:37.656Z,58.12
2022-10-11T16:11:07.874Z,58.03
2022-10-11T16:13:38.004Z,57.81
2022-10-11T16:16:09.728Z,57.99
2022-10-11T16:18:41.778Z,58.26
2022-10-11T16:21:12.140Z,57.81
2022-10-11T16:23:41.811Z,58.12
2022-10-11T16:26:14.121Z,57.89
2022-10-11T16:28:43.976Z,57.66
2022-10-11T16:31:16.786Z,57.88
2022-10-11T16:33:52.911Z,57.87
2022-10-11T16:36:35.916Z,57.87
2022-10-11T16:39:08.171Z,57.99
2022-10-11T16:41:38.042Z,58.49
2022-10-11T16:44:08.624Z,58.27
2022-10-11T16:46:38.410Z,58.52
2022-10-11T16:49:09.531Z,58.76
2022-10-11T16:51:39.376Z,58.79
2022-10-11T16:54:08.927Z,58.96
2022-10-11T16:56:40.106Z,58.55
2022-10-11T16:59:10.035Z,58.63
2022-10-11T17:01:40.288Z,58.54
2022-10-11T17:04:11.285Z,58.56
2022-10-11T17:06:45.008Z,58.52
2022-10-11T17:09:15.949Z,58.84
2022-10-11T17:11:45.990Z,58.78
2022-10-11T17:14:16.040Z,58.95
2022-10-11T17:16:46.190Z,59.13
2022-10-11T17:19:17.555Z,59.03
2022-10-11T17:21:47.158Z,59.24
2022-10-11T17:24:16.846Z,59.26
2022-10-11T17:26:46.357Z,59.53
2022-10-11T17:29:17.005Z,59.57
2022-10-11T17:31:49.407Z,59.39
2022-10-11T17:34:20.639Z,59.83
2022-10-11T17:36:50.399Z,59.93
2022-10-11T17:39:21.467Z,59.86
2022-10-11T17:41:51.379Z,59.91
2022-10-11T17:44:21.784Z,59.97
2022-10-11T17:46:51.765Z,60.01
2022-10-11T17:49:22.713Z,60.36
2022-10-11T17:51:52.668Z,60.54
2022-10-11T17:54:22.298Z,61.17
2022-10-11T17:56:52.175Z,61.55
2022-10-11T17:59:22.454Z,61.43
2022-10-11T18:01:52.226Z,61.80
2022-10-11T18:04:26.853Z,62.75
2022-10-11T18:06:56.592Z,63.02
2022-10-11T18:09:26.191Z,64.44
2022-10-11T18:11:55.942Z,64.44
2022-10-11T18:14:25.468Z,64.21
2022-10-11T18:16:55.156Z,64.70
2022-10-11T18:19:29.559Z,64.88
2022-10-11T18:22:03.150Z,65.30
2022-10-11T18:24:36.857Z,65.33
2022-10-11T18:27:06.465Z,65.54
2022-10-11T18:29:36.454Z,65.21
2022-10-11T18:32:06.414Z,65.92
2022-10-11T18:34:37.868Z,65.61
2022-10-11T18:37:07.440Z,65.95
2022-10-11T18:39:36.956Z,65.89
2022-10-11T18:42:06.754Z,66.11
2022-10-11T18:44:36.321Z,66.01
2022-10-11T18:47:05.976Z,66.10
2022-10-11T18:49:37.132Z,66.16
2022-10-11T18:52:08.002Z,65.98
2022-10-11T18:54:37.845Z,66.29
2022-10-11T18:57:07.438Z,66.21
2022-10-11T18:59:37.180Z,66.57
2022-10-11T19:02:06.874Z,66.27
2022-10-11T19:04:38.076Z,66.17
2022-10-11T19:07:07.832Z,66.33
2022-10-11T19:09:38.171Z,66.76
2022-10-11T19:12:08.515Z,66.30
2022-10-11T19:14:38.773Z,66.76
2022-10-11T19:17:12.325Z,66.98
2022-10-11T19:19:43.255Z,66.76
2022-10-11T19:22:13.157Z,66.79
2022-10-11T19:24:43.741Z,67.16
2022-10-11T19:27:13.327Z,66.86
2022-10-11T19:29:42.923Z,66.84
2022-10-11T19:32:12.697Z,66.89
2022-10-11T19:34:43.792Z,67.19
2022-10-11T19:37:14.423Z,67.45
2022-10-11T19:39:44.059Z,67.75
2022-10-11T19:42:13.935Z,67.58
2022-10-11T19:44:43.623Z,67.94
2022-10-11T19:47:16.101Z,67.70
2022-10-11T19:49:47.016Z,67.90
2022-10-11T19:52:16.905Z,67.87
2022-10-11T19:54:46.473Z,67.85
2022-10-11T19:57:16.074Z,67.68
2022-10-11T19:59:45.824Z,67.81
2022-10-11T20:02:15.758Z,68.34
2022-10-11T20:04:53.176Z,68.04
2022-10-11T20:07:23.406Z,68.02
2022-10-11T20:09:53.012Z,68.28
2022-10-11T20:12:24.134Z,68.73
2022-10-11T20:14:54.091Z,68.85
2022-10-11T20:17:44.122Z,69.65
2022-10-11T20:20:15.470Z,69.53
2022-10-11T20:22:45.158Z,69.88
2022-10-11T20:25:14.746Z,70.30
2022-10-11T20:27:44.588Z,70.16
2022-10-11T20:30:14.864Z,70.42
2022-10-11T20:32:44.550Z,70.31
2022-10-11T20:35:15.833Z,71.01
2022-10-11T20:37:45.380Z,70.61
2022-10-11T20:40:15.179Z,70.88
2022-10-11T20:42:44.735Z,70.65
2022-10-11T20:45:14.373Z,70.24
2022-10-11T20:47:44.645Z,70.02
2022-10-11T20:50:20.746Z,69.96
2022-10-11T20:52:52.421Z,69.95
2022-10-11T20:55:22.059Z,69.55
2022-10-11T20:57:51.649Z,69.46
2022-10-11T21:00:21.327Z,69.07
2022-10-11T21:02:51.629Z,69.04
2022-10-11T21:05:22.536Z,68.91
2022-10-11T21:07:53.227Z,68.82
2022-10-11T21:10:22.861Z,68.71
2022-10-11T21:12:53.228Z,68.46
2022-10-11T21:15:23.252Z,68.51
2022-10-11T21:17:54.371Z,68.19
2022-10-11T21:20:25.697Z,68.28
2022-10-11T21:22:55.379Z,67.93
2022-10-11T21:25:24.939Z,68.00
2022-10-11T21:27:54.537Z,67.81
2022-10-11T21:30:24.126Z,67.96
2022-10-11T21:32:57.314Z,67.61
2022-10-11T21:35:28.995Z,67.70
2022-10-11T21:37:59.626Z,68.06
2022-10-11T21:40:29.302Z,67.53
2022-10-11T21:42:58.867Z,67.40
2022-10-11T21:45:28.430Z,67.68
2022-10-11T21:47:57.975Z,67.66
2022-10-11T21:50:28.847Z,67.77
2022-10-11T21:52:58.885Z,68.11
2022-10-11T21:55:29.555Z,68.13
2022-10-11T21:57:59.477Z,67.57
2022-10-11T22:00:29.372Z,67.90
2022-10-11T22:02:58.969Z,67.99
2022-10-11T22:05:30.173Z,68.52
2022-10-11T22:07:59.761Z,68.48
2022-10-11T22:10:29.301Z,68.90
2022-10-11T22:12:59.596Z,69.03
2022-10-11T22:15:29.648Z,69.21
2022-10-11T22:17:59.407Z,69.07
2022-10-11T22:20:30.707Z,69.27
2022-10-11T22:23:00.367Z,69.33
2022-10-11T22:25:30.642Z,70.07
2022-10-11T22:28:00.869Z,70.38
2022-10-11T22:30:30.933Z,69.95
2022-10-11T22:33:00.828Z,70.13
2022-10-11T22:35:33.658Z,69.81
2022-10-11T22:38:06.683Z,70.08
2022-10-11T22:40:40.285Z,70.50
2022-10-11T22:43:10.042Z,70.13
2022-10-11T22:45:39.626Z,69.96
2022-10-11T22:48:09.259Z,70.06
2022-10-11T22:50:40.233Z,70.24
2022-10-11T22:53:10.177Z,69.79
2022-10-11T22:55:39.924Z,69.56
2022-10-11T22:58:09.493Z,69.90
2022-10-11T23:00:39.058Z,70.15
2022-10-11T23:03:08.970Z,70.21
2022-10-11T23:05:40.092Z,70.24
2022-10-11T23:08:10.460Z,69.89
2022-10-11T23:10:40.168Z,69.84
2022-10-11T23:13:10.604Z,69.96
2022-10-11T23:15:41.036Z,70.53
2022-10-11T23:18:11.049Z,70.15
2022-10-11T23:20:41.957Z,70.52
2022-10-11T23:23:11.529Z,70.34
2022-10-11T23:25:41.245Z,70.53
2022-10-11T23:28:10.839Z,69.83
2022-10-11T23:30:40.707Z,70.19
2022-10-11T23:33:10.316Z,69.78
2022-10-11T23:35:40.015Z,70.07
2022-10-11T23:38:10.903Z,69.98
2022-10-11T23:40:40.498Z,69.88
2022-10-11T23:43:10.213Z,69.95
2022-10-11T23:45:39.715Z,69.63
2022-10-11T23:48:09.323Z,69.84
2022-10-11T23:50:39.076Z,69.50
2022-10-11T23:53:08.612Z,70.00
2022-10-11T23:55:39.561Z,69.90
2022-10-11T23:58:09.276Z,70.23
